CheckWX is a tool to help pilots better visualize weather data.  It is not intended as a substitute for an official pre-flight weather briefing.

01:02:24 UTC

KCXW METAR
Cantrell Field Airport
Conway, Arkansas, USA
Current

27 mins ago

KCXW 200035Z AUTO 15004KT 10SM CLR 32/26 A2995 RMK A01
Observed
Aug-20 @ 00:35 UTC
Wind
  • 150° at 4 KTS
Visibility
10 SM
Flight Rules
VFR
Cloud Levels
  • Clear skies
Temperature
32°C / 90°F
Dewpoint
26°C / 79°F
Heat Index
42°C / 107°F
Humidity
71%
Altimeter
29.95" Hg
Pressure
1014.22 hPa
Previous

1 hour ago

KCXW 192355Z AUTO 14005KT 10SM CLR 33/26 A2994 RMK A01
Observed
Aug-19 @ 23:55 UTC
Wind
  • 140° at 5 KTS
Visibility
10 SM
Flight Rules
VFR
Cloud Levels
  • Clear skies
Temperature
33°C / 91°F
Dewpoint
26°C / 79°F
Heat Index
42°C / 107°F
Humidity
67%
Altimeter
29.94" Hg
Pressure
1013.92 hPa
Previous

1 hour ago

KCXW 192335Z AUTO 15006KT 10SM CLR 34/26 A2994 RMK A01
Observed
Aug-19 @ 23:35 UTC
Wind
  • 150° at 6 KTS
Visibility
10 SM
Flight Rules
VFR
Cloud Levels
  • Clear skies
Temperature
34°C / 93°F
Dewpoint
26°C / 79°F
Heat Index
43°C / 110°F
Humidity
63%
Altimeter
29.94" Hg
Pressure
1013.92 hPa